Air Sicilia Virtual Airways - Rotta

Air Sicilia Virtual Airways - SIC324A

( IT ) LICG - 10:00
Pantelleria Airport
PANTELLERIA ( PNL )
plane_to ( TN ) DTTA - 10:46
Tunis Carthage International Airport
TUNIS ( TUN )

AIRPORT NEAR NAVIGATION AIDS

Tipo Nome Frequenza
VOR-DME Pantelleria 116100 KHZ
NDB Pantelleria 335 KHZ

METAR / TAF
LICG 241850Z 06005KT 9999 FEW025 10/06 Q1027

INFORMAZIONI PISTE

Pista Lunghezza pista Larghezza pista Elevazione pista Runway displaced threshold Prua pista
03 4003 98 620 0 28
21 4003 98 591 0 208
08 5495 148 635 0 76
26 5495 148 603 0 256

FREQUENZE AEROPORTO

Tipo Nome Frequenza
TWR TWR 118.45 MHZ

AIRPORT NEAR NAVIGATION AIDS

Tipo Nome Frequenza
NDB Tunis 386 KHZ
NDB Tunis 325 KHZ
VOR-DME Tunis 116500 KHZ

METAR / TAF
DTTA 250530Z 13003KT 090V180 9999 SCT030 07/06 Q1029
DTTA 242300Z 2500/2524 28004KT 9999 FEW030 PROB30 TEMPO 2505/2507 3000 BR BECMG 2512/2514 08004KT

INFORMAZIONI PISTE

Pista Lunghezza pista Larghezza pista Elevazione pista Runway displaced threshold Prua pista
01 10499 148 13 0 12.3
19 10499 148 21 0 192.3
11 9318 148 19 0 112.5
29 9318 148 11 657 292.5

FREQUENZE AEROPORTO

Tipo Nome Frequenza
APP TUNIS APP 121.2 MHZ
ATIS TUNIS ATIS 118.675 MHZ
GND TUNIS GND 121.9 MHZ
TWR TUNIS TWR 118.1 MHZ

Piano di volo

Air Sicilia Virtual Airways Aerei

Aerei disponibili per la rotta in questo momento a Pantelleria Airport

At this time no aircraft Air Sicilia Virtual Airways is available at Pantelleria Airport
Only Charter flights.

83.82 NM

Distanza in Miglia Nautiche.

€ 100,00

Costo del biglietto per questo volo.

0.46 h.

Tempo di volo stimato.




12-11-2018
Aerosoft Airport Rio de Janeiro International V2.0 XP

L'Aeroporto Internazionale di Rio de Janeiro-Galeão (IATA: GIG, ICAO: SBGL), costruito nel 1952 nel quartiere di Ilha do Governador ed intitolato al musicista Antônio Carlos Jobim, è il principale aeroporto internazio ....


15-10-2018
Aerosoft A320 Family professional

La gamma di aeromobili A320 è una delle più comuni nei cieli. Questi aerei di linea a doppio-getto a corto e medio raggio si sono dimostrati convenienti, affidabili e prontamente disponibili, rendendoli le opzioni migl ....


10-10-2018
Motore critico ( Critical Engine )

Il motore critico di un velivolo ad ala fissa multi-motore è il motore che, in caso di guasto, influirebbe negativamente sulle prestazioni o sulla capacità di manovra di un aereo. Sui velivoli ad elica, vi è un ....


04-10-2018
Aerosoft Dortmund XP

Scopri il centro della regione della Ruhr su XPlane 11 - lo scenario Dortmund XP è una ricostruzione completa della città di Dortmund per il simulatore di volo targato Laminar. Oltre all'intera area urbana di Dortmu ....


07-08-2018
Aerosoft Professional Flight Planner PFPX

PFPX - Professional Flight Planner X - è un nuovo ed innovativo strumento di pianificazione del volo sviluppato da piloti e dispatcher del mondo reale. È un'aggiunta preziosa e realistica alla tua esperienza di simulaz ....